createdAt,value
2023-01-23T00:01:33.050Z,11.37
2023-01-23T00:04:05.568Z,11.20
2023-01-23T00:06:37.063Z,12.38
2023-01-23T00:09:09.462Z,12.45
2023-01-23T00:11:40.963Z,12.52
2023-01-23T00:14:12.383Z,12.35
2023-01-23T00:16:43.803Z,12.85
2023-01-23T00:19:15.317Z,13.70
2023-01-23T00:21:46.718Z,13.47
2023-01-23T00:24:18.239Z,12.88
2023-01-23T00:26:49.666Z,13.32
2023-01-23T00:29:21.092Z,14.07
2023-01-23T00:31:52.589Z,12.60
2023-01-23T00:34:24.070Z,13.32
2023-01-23T00:36:55.516Z,12.10
2023-01-23T00:39:26.979Z,12.40
2023-01-23T00:41:58.413Z,13.10
2023-01-23T00:44:29.978Z,13.67
2023-01-23T00:47:01.445Z,13.35
2023-01-23T00:49:32.883Z,13.98
2023-01-23T00:52:04.450Z,12.73
2023-01-23T00:54:35.969Z,13.55
2023-01-23T00:57:07.408Z,13.37
2023-01-23T00:59:38.786Z,13.27
2023-01-23T01:02:10.228Z,13.37
2023-01-23T01:04:41.693Z,12.55
2023-01-23T01:07:13.187Z,12.88
2023-01-23T01:09:44.611Z,13.95
2023-01-23T01:12:16.034Z,13.82
2023-01-23T01:14:47.471Z,12.80
2023-01-23T01:17:18.968Z,12.13
2023-01-23T01:19:50.377Z,13.10
2023-01-23T01:22:21.816Z,11.98
2023-01-23T01:24:53.303Z,12.23
2023-01-23T01:27:25.270Z,11.98
2023-01-23T01:29:56.731Z,12.52
2023-01-23T01:32:28.273Z,11.95
2023-01-23T01:34:59.748Z,11.32
2023-01-23T01:37:36.689Z,11.98
2023-01-23T01:40:13.185Z,12.13
2023-01-23T01:42:49.702Z,12.30
2023-01-23T01:45:58.925Z,11.18
2023-01-23T01:48:42.922Z,11.73
2023-01-23T01:51:44.128Z,11.47
2023-01-23T01:54:46.959Z,12.10
2023-01-23T01:57:23.784Z,12.63
2023-01-23T02:00:17.472Z,11.88
2023-01-23T02:03:07.568Z,11.88
2023-01-23T02:05:45.299Z,12.45
2023-01-23T02:08:41.574Z,12.70
2023-01-23T02:11:13.199Z,11.50
2023-01-23T02:13:45.361Z,10.85
2023-01-23T02:16:23.723Z,12.10
2023-01-23T02:19:00.895Z,11.68
2023-01-23T02:21:36.016Z,12.40
2023-01-23T02:24:28.618Z,12.00
2023-01-23T02:27:00.098Z,12.65
2023-01-23T02:29:42.796Z,12.88
2023-01-23T02:32:14.322Z,12.15
2023-01-23T02:34:45.808Z,12.88
2023-01-23T02:37:18.053Z,12.20
2023-01-23T02:39:49.515Z,12.48
2023-01-23T02:42:23.182Z,13.52
2023-01-23T02:44:54.607Z,13.68
2023-01-23T02:47:26.097Z,13.37
2023-01-23T02:49:57.543Z,13.02
2023-01-23T02:52:29.153Z,13.07
2023-01-23T02:55:00.654Z,11.95
2023-01-23T02:57:32.101Z,13.55
2023-01-23T03:00:04.402Z,13.17
2023-01-23T03:02:35.818Z,14.68
2023-01-23T03:05:07.687Z,13.15
2023-01-23T03:07:39.124Z,13.50
2023-01-23T03:10:12.120Z,14.00
2023-01-23T03:12:43.621Z,13.77
2023-01-23T03:15:15.170Z,15.80
2023-01-23T03:17:46.595Z,13.38
2023-01-23T03:20:19.562Z,14.27
2023-01-23T03:22:51.129Z,14.13
2023-01-23T03:25:22.987Z,16.20
2023-01-23T03:27:54.420Z,14.07
2023-01-23T03:30:25.882Z,14.82
2023-01-23T03:32:57.364Z,13.83
2023-01-23T03:35:28.766Z,15.45
2023-01-23T03:38:00.205Z,15.50
2023-01-23T03:40:31.720Z,16.10
2023-01-23T03:43:03.507Z,15.60
2023-01-23T03:45:35.037Z,16.53
2023-01-23T03:48:06.685Z,16.25
2023-01-23T03:50:38.107Z,15.27
2023-01-23T03:53:09.543Z,16.10
2023-01-23T03:55:41.002Z,16.85
2023-01-23T03:58:12.480Z,15.10
2023-01-23T04:00:44.033Z,15.75
2023-01-23T04:03:15.448Z,16.45
2023-01-23T04:05:46.868Z,17.42
2023-01-23T04:08:18.366Z,16.33
2023-01-23T04:10:50.079Z,15.15
2023-01-23T04:13:21.489Z,15.43
2023-01-23T04:15:52.905Z,15.95
2023-01-23T04:18:24.380Z,15.50
2023-01-23T04:20:56.458Z,14.98
2023-01-23T04:23:28.447Z,15.13
2023-01-23T04:25:59.961Z,16.05
2023-01-23T04:28:31.424Z,16.00
2023-01-23T04:31:02.906Z,16.15
2023-01-23T04:33:34.653Z,16.38
2023-01-23T04:36:07.214Z,14.73
2023-01-23T04:38:38.750Z,15.73
2023-01-23T04:41:21.722Z,16.20
2023-01-23T04:43:53.121Z,16.42
2023-01-23T04:46:24.580Z,15.20
2023-01-23T04:48:56.025Z,16.20
2023-01-23T04:51:27.496Z,16.77
2023-01-23T04:53:58.935Z,16.45
2023-01-23T04:56:30.361Z,17.67
2023-01-23T04:59:01.834Z,16.30
2023-01-23T05:01:33.613Z,16.30
2023-01-23T05:04:05.765Z,14.95
2023-01-23T05:06:37.217Z,16.15
2023-01-23T05:09:08.741Z,16.08
2023-01-23T05:11:40.257Z,16.27
2023-01-23T05:14:11.776Z,17.00
2023-01-23T05:16:43.232Z,18.33
2023-01-23T05:19:14.974Z,17.30
2023-01-23T05:21:46.408Z,16.87
2023-01-23T05:24:17.868Z,16.55
2023-01-23T05:26:49.371Z,17.92
2023-01-23T05:29:20.983Z,18.67
2023-01-23T05:31:52.483Z,18.77
2023-01-23T05:34:24.009Z,18.43
2023-01-23T05:36:55.476Z,18.38
2023-01-23T05:39:26.940Z,17.83
2023-01-23T05:41:58.430Z,18.15
2023-01-23T05:44:29.834Z,20.80
2023-01-23T05:47:01.263Z,20.42
2023-01-23T05:49:32.708Z,21.13
2023-01-23T05:52:04.244Z,22.47
2023-01-23T05:54:35.691Z,20.75
2023-01-23T05:57:08.932Z,21.58
2023-01-23T05:59:40.425Z,20.10
2023-01-23T06:02:12.044Z,20.83
2023-01-23T06:04:43.495Z,20.63
2023-01-23T06:07:17.084Z,20.08
2023-01-23T06:09:48.611Z,20.42
2023-01-23T06:12:20.044Z,21.13
2023-01-23T06:14:51.618Z,20.48
2023-01-23T06:17:23.822Z,19.37
2023-01-23T06:19:55.228Z,20.05
2023-01-23T06:22:26.736Z,18.80
2023-01-23T06:24:58.200Z,19.95
2023-01-23T06:27:29.730Z,20.87
2023-01-23T06:30:01.170Z,19.88
2023-01-23T06:32:32.667Z,20.38
2023-01-23T06:35:04.387Z,18.92
2023-01-23T06:37:35.819Z,20.00
2023-01-23T06:40:08.296Z,18.52
2023-01-23T06:42:43.300Z,19.42
2023-01-23T06:45:14.738Z,19.40
2023-01-23T06:47:46.151Z,19.95
2023-01-23T06:50:17.759Z,18.73
2023-01-23T06:52:49.270Z,18.63
2023-01-23T06:55:20.753Z,19.90
2023-01-23T06:57:52.150Z,17.40
2023-01-23T07:00:23.781Z,19.10
2023-01-23T07:02:55.250Z,20.23
2023-01-23T07:05:26.739Z,18.30
2023-01-23T07:07:58.533Z,19.00
2023-01-23T07:10:30.049Z,19.17
2023-01-23T07:13:01.505Z,18.83
2023-01-23T07:15:33.846Z,17.67
2023-01-23T07:18:05.285Z,18.67
2023-01-23T07:20:36.714Z,18.45
2023-01-23T07:23:10.096Z,19.33
2023-01-23T07:25:42.084Z,18.55
2023-01-23T07:28:13.931Z,20.48
2023-01-23T07:30:46.884Z,18.48
2023-01-23T07:33:18.369Z,19.08
2023-01-23T07:35:49.865Z,17.90
2023-01-23T07:38:21.712Z,18.73
2023-01-23T07:40:53.180Z,19.48
2023-01-23T07:43:24.778Z,19.85
2023-01-23T07:45:59.239Z,19.25
2023-01-23T07:48:30.716Z,20.25
2023-01-23T07:51:03.609Z,18.40
2023-01-23T07:53:35.133Z,20.77
2023-01-23T07:56:07.055Z,20.35
2023-01-23T07:58:38.508Z,19.80
2023-01-23T08:01:11.284Z,19.50
2023-01-23T08:03:42.969Z,19.85
2023-01-23T08:06:14.518Z,18.92
2023-01-23T08:08:48.588Z,20.17
2023-01-23T08:11:20.022Z,20.42
2023-01-23T08:13:51.441Z,19.73
2023-01-23T08:16:23.036Z,21.25
2023-01-23T08:18:54.531Z,19.10
2023-01-23T08:21:26.072Z,20.20
2023-01-23T08:23:57.519Z,20.70
2023-01-23T08:26:29.119Z,21.35
2023-01-23T08:29:00.536Z,21.03
2023-01-23T08:31:32.162Z,19.83
2023-01-23T08:34:03.726Z,18.63
2023-01-23T08:36:35.164Z,19.05
2023-01-23T08:39:06.623Z,19.48
2023-01-23T08:41:38.051Z,18.93
2023-01-23T08:44:09.436Z,19.88
2023-01-23T08:46:40.875Z,19.50
2023-01-23T08:49:12.442Z,19.65
2023-01-23T08:51:43.852Z,19.35
2023-01-23T08:54:15.321Z,20.40
2023-01-23T08:56:46.787Z,19.60
2023-01-23T08:59:18.258Z,19.37
2023-01-23T09:01:49.745Z,21.00
2023-01-23T09:04:21.235Z,20.25
2023-01-23T09:06:52.701Z,19.75
2023-01-23T09:09:24.280Z,19.17
2023-01-23T09:11:55.924Z,19.77
2023-01-23T09:14:27.397Z,20.08
2023-01-23T09:16:58.814Z,19.98
2023-01-23T09:19:33.413Z,19.27
2023-01-23T09:22:04.885Z,19.55
2023-01-23T09:24:36.369Z,19.07
2023-01-23T09:27:08.002Z,19.70
2023-01-23T09:29:39.396Z,19.10
2023-01-23T09:32:10.935Z,19.27
2023-01-23T09:34:42.780Z,19.20
2023-01-23T09:37:15.015Z,18.25
2023-01-23T09:39:46.461Z,20.05
2023-01-23T09:42:27.062Z,19.10
2023-01-23T09:45:04.043Z,19.23
2023-01-23T09:47:59.617Z,19.50
2023-01-23T09:50:36.194Z,18.90
2023-01-23T09:53:18.493Z,18.80
2023-01-23T09:56:12.319Z,18.70
2023-01-23T09:58:51.445Z,20.48
2023-01-23T10:01:26.258Z,20.15
2023-01-23T10:04:02.020Z,19.33
2023-01-23T10:07:13.583Z,17.15
2023-01-23T10:10:03.356Z,18.00
2023-01-23T10:13:04.671Z,18.38
2023-01-23T10:16:05.719Z,19.38
2023-01-23T10:18:41.545Z,18.38
2023-01-23T10:21:22.281Z,19.80
2023-01-23T10:24:10.936Z,17.92
2023-01-23T10:26:45.580Z,17.67
2023-01-23T10:29:32.207Z,17.40
2023-01-23T10:32:03.928Z,18.33
2023-01-23T10:34:53.598Z,17.92
2023-01-23T10:37:38.931Z,18.10
2023-01-23T10:40:14.791Z,18.33
2023-01-23T10:42:46.259Z,16.80
2023-01-23T10:45:19.690Z,17.30
2023-01-23T10:47:55.112Z,17.30
2023-01-23T10:50:38.091Z,16.65
2023-01-23T10:53:19.427Z,17.27
2023-01-23T10:55:52.673Z,16.48
2023-01-23T10:58:33.704Z,17.38
2023-01-23T11:01:07.343Z,16.02
2023-01-23T11:03:38.824Z,15.57
2023-01-23T11:06:17.383Z,16.23
2023-01-23T11:08:56.907Z,16.25
2023-01-23T11:11:30.875Z,14.98
2023-01-23T11:14:13.902Z,15.73
2023-01-23T11:16:45.342Z,15.55
2023-01-23T11:19:22.363Z,15.15
2023-01-23T11:22:00.097Z,15.52
2023-01-23T11:24:41.152Z,15.18
2023-01-23T11:27:13.091Z,15.27
2023-01-23T11:30:03.621Z,16.25
2023-01-23T11:32:59.302Z,15.05
2023-01-23T11:35:49.967Z,14.97
2023-01-23T11:38:30.856Z,15.27
2023-01-23T11:41:04.484Z,14.95
2023-01-23T11:43:35.994Z,15.10
2023-01-23T11:46:13.752Z,15.70
2023-01-23T11:49:03.281Z,14.93
2023-01-23T11:51:55.907Z,15.95
2023-01-23T11:55:04.907Z,15.05
2023-01-23T11:57:59.932Z,14.23
2023-01-23T12:01:09.065Z,14.53
2023-01-23T12:03:54.835Z,14.15
2023-01-23T12:06:43.794Z,14.82
2023-01-23T12:09:18.353Z,13.50
2023-01-23T12:12:03.795Z,13.85
2023-01-23T12:14:44.310Z,13.32
2023-01-23T12:17:41.775Z,12.32
2023-01-23T12:20:55.025Z,11.65
2023-01-23T12:23:36.468Z,10.82
2023-01-23T12:26:16.964Z,11.85
2023-01-23T12:29:10.426Z,12.10
2023-01-23T12:31:53.484Z,12.00
2023-01-23T12:34:45.832Z,10.90
2023-01-23T12:37:43.921Z,10.18
2023-01-23T12:40:41.867Z,9.82
2023-01-23T12:43:21.625Z,9.02
2023-01-23T12:46:01.147Z,9.57
2023-01-23T12:48:39.237Z,10.27
2023-01-23T12:51:18.358Z,10.15
2023-01-23T12:53:57.179Z,10.35
2023-01-23T12:56:32.556Z,10.18
2023-01-23T12:59:36.034Z,10.70
2023-01-23T13:02:29.191Z,10.75
2023-01-23T13:05:24.126Z,11.32
2023-01-23T13:08:07.098Z,12.02
2023-01-23T13:11:07.335Z,12.15
2023-01-23T13:13:39.748Z,12.65
2023-01-23T13:16:16.991Z,12.90
2023-01-23T13:18:54.810Z,12.23
2023-01-23T13:21:26.306Z,12.52
2023-01-23T13:24:20.658Z,12.27
2023-01-23T13:26:52.151Z,12.43
2023-01-23T13:29:49.281Z,11.35
2023-01-23T13:32:22.766Z,11.05
2023-01-23T13:34:54.533Z,10.88
2023-01-23T13:37:28.949Z,10.65
2023-01-23T13:40:15.517Z,10.60
2023-01-23T13:42:47.157Z,10.18
2023-01-23T13:45:23.713Z,9.40
2023-01-23T14:22:37.668Z,7.10
2023-01-23T14:25:17.523Z,6.78
2023-01-23T14:27:53.584Z,6.45
2023-01-23T14:30:25.744Z,6.38
2023-01-23T14:32:57.750Z,6.82
2023-01-23T14:35:31.668Z,6.82
2023-01-23T14:38:06.518Z,7.20
2023-01-23T14:40:50.260Z,6.88
2023-01-23T14:43:28.964Z,6.57
2023-01-23T14:46:06.685Z,6.57
2023-01-23T14:48:42.829Z,7.05
2023-01-23T14:51:23.846Z,7.40
2023-01-23T14:54:00.541Z,7.65
2023-01-23T14:56:35.063Z,7.50
2023-01-23T14:59:15.867Z,7.60
2023-01-23T15:01:58.470Z,8.05
2023-01-23T15:04:30.243Z,8.15
2023-01-23T15:07:02.714Z,8.65
2023-01-23T15:09:39.190Z,8.57
2023-01-23T15:12:18.844Z,8.57
2023-01-23T15:14:54.658Z,9.33
2023-01-23T15:17:26.180Z,8.70
2023-01-23T15:19:57.631Z,9.07
2023-01-23T15:22:30.296Z,8.73
2023-01-23T15:25:27.696Z,8.77
2023-01-23T15:27:59.284Z,9.03
2023-01-23T15:30:33.435Z,8.73
2023-01-23T15:33:22.839Z,8.55
2023-01-23T15:36:04.726Z,7.47
2023-01-23T15:38:36.233Z,7.50
2023-01-23T15:41:09.640Z,7.63
2023-01-23T15:43:41.196Z,6.90
2023-01-23T15:46:13.111Z,6.82
2023-01-23T15:48:44.571Z,6.63
2023-01-23T15:51:15.989Z,6.20
2023-01-23T15:53:47.547Z,6.57
2023-01-23T15:56:28.178Z,7.05
2023-01-23T15:58:59.771Z,6.60
2023-01-23T16:01:31.238Z,6.80
2023-01-23T16:04:02.685Z,6.78
2023-01-23T16:06:34.534Z,6.70
2023-01-23T16:09:06.221Z,7.10
2023-01-23T16:11:37.839Z,7.28
2023-01-23T16:14:15.506Z,7.45
2023-01-23T16:16:47.133Z,7.45
2023-01-23T16:19:18.669Z,7.25
2023-01-23T16:22:03.379Z,7.00
2023-01-23T16:24:39.425Z,7.18
2023-01-23T16:27:18.970Z,7.50
2023-01-23T16:29:50.449Z,7.38
2023-01-23T16:32:21.945Z,7.00
2023-01-23T16:34:53.541Z,6.80
2023-01-23T16:37:25.027Z,7.30
2023-01-23T16:39:56.484Z,7.20
2023-01-23T16:42:29.955Z,7.30
2023-01-23T16:45:01.411Z,7.43
2023-01-23T16:47:32.824Z,7.55
2023-01-23T16:50:04.595Z,7.93
2023-01-23T16:52:36.003Z,8.00
2023-01-23T16:55:21.457Z,7.82
2023-01-23T16:57:56.252Z,7.85
2023-01-23T17:00:34.732Z,7.57
2023-01-23T17:03:09.133Z,7.70
2023-01-23T17:05:40.625Z,7.68
2023-01-23T17:08:23.490Z,8.32
2023-01-23T17:10:57.648Z,8.80
2023-01-23T17:13:31.502Z,8.52
2023-01-23T17:16:07.404Z,8.32
2023-01-23T17:18:47.651Z,7.80
2023-01-23T17:21:22.495Z,8.13
2023-01-23T17:23:53.959Z,8.70
2023-01-23T17:26:25.542Z,9.30
2023-01-23T17:28:57.170Z,8.98
2023-01-23T17:31:29.101Z,9.77
2023-01-23T17:34:02.936Z,9.40
2023-01-23T17:36:35.323Z,9.35
2023-01-23T17:39:07.027Z,9.83
2023-01-23T17:41:38.629Z,9.30
2023-01-23T17:44:10.102Z,9.77
2023-01-23T17:46:41.878Z,9.40
2023-01-23T17:49:29.374Z,9.57
2023-01-23T17:52:01.240Z,9.20
2023-01-23T17:54:32.752Z,9.40
2023-01-23T17:57:04.484Z,8.95
2023-01-23T17:59:35.975Z,9.18
2023-01-23T18:02:25.451Z,8.38
2023-01-23T18:04:56.900Z,9.23
2023-01-23T18:07:28.377Z,9.52
2023-01-23T18:09:59.875Z,8.90
2023-01-23T18:12:46.522Z,9.20
2023-01-23T18:15:57.344Z,9.70
2023-01-23T18:18:30.122Z,9.80
2023-01-23T18:21:02.381Z,10.80
2023-01-23T18:23:36.814Z,10.30
2023-01-23T18:26:31.561Z,10.53
2023-01-23T18:29:25.965Z,10.55
2023-01-23T18:32:12.382Z,9.97
2023-01-23T18:35:22.385Z,10.43
2023-01-23T18:37:54.015Z,10.40
2023-01-23T18:40:35.537Z,10.85
2023-01-23T18:43:19.247Z,10.17
2023-01-23T18:45:50.984Z,10.45
2023-01-23T18:48:25.481Z,9.88
2023-01-23T18:51:15.980Z,10.90
2023-01-23T18:54:05.970Z,10.93
2023-01-23T18:56:56.013Z,12.35
2023-01-23T18:59:43.003Z,13.10
2023-01-23T19:02:34.647Z,11.80
2023-01-23T19:05:12.364Z,12.18
2023-01-23T19:07:45.260Z,11.98
2023-01-23T19:10:25.709Z,12.15
2023-01-23T19:13:19.916Z,12.02
2023-01-23T19:16:00.432Z,11.75
2023-01-23T19:18:48.624Z,11.93
2023-01-23T19:21:23.899Z,13.27
2023-01-23T19:24:02.706Z,20.40
2023-01-23T19:26:36.749Z,15.65
2023-01-23T19:29:21.023Z,12.73
2023-01-23T19:32:07.243Z,12.43
2023-01-23T19:34:39.201Z,13.00
2023-01-23T19:37:10.628Z,12.35
2023-01-23T19:39:42.170Z,12.67
2023-01-23T19:42:13.949Z,13.43
2023-01-23T19:44:45.410Z,13.05
2023-01-23T19:47:16.822Z,12.70
2023-01-23T19:49:48.282Z,13.55
2023-01-23T19:52:19.944Z,13.63
2023-01-23T19:54:51.359Z,13.02
2023-01-23T19:57:22.839Z,13.70
2023-01-23T19:59:54.314Z,14.20
2023-01-23T20:02:25.742Z,14.80
2023-01-23T20:04:57.255Z,14.50
2023-01-23T20:07:28.705Z,15.25
2023-01-23T20:10:00.114Z,15.63
2023-01-23T20:12:31.519Z,16.67
2023-01-23T20:15:02.953Z,15.03
2023-01-23T20:17:34.405Z,16.08
2023-01-23T20:20:07.541Z,16.15
2023-01-23T20:22:39.674Z,16.88
2023-01-23T20:25:14.604Z,17.30
2023-01-23T20:27:46.093Z,16.65
2023-01-23T20:30:20.123Z,16.35
2023-01-23T20:32:51.748Z,16.95
2023-01-23T20:35:23.171Z,17.10
2023-01-23T20:37:54.594Z,17.92
2023-01-23T20:40:25.991Z,17.87
2023-01-23T20:42:57.495Z,18.38
2023-01-23T20:45:28.963Z,19.17
2023-01-23T20:48:00.411Z,18.27
2023-01-23T20:50:31.900Z,18.38
2023-01-23T20:53:03.399Z,19.42
2023-01-23T20:55:34.889Z,20.20
2023-01-23T20:58:06.339Z,19.90
2023-01-23T21:00:37.800Z,19.77
2023-01-23T21:03:09.286Z,19.83
2023-01-23T21:05:40.799Z,20.25
2023-01-23T21:08:12.206Z,22.00
2023-01-23T21:10:43.612Z,21.45
2023-01-23T21:13:15.045Z,20.73
2023-01-23T21:16:03.997Z,21.52
2023-01-23T21:18:37.311Z,21.65
2023-01-23T21:21:09.269Z,21.15
2023-01-23T21:23:41.176Z,21.15
2023-01-23T21:26:12.641Z,21.45
2023-01-23T21:28:46.640Z,22.17
2023-01-23T21:31:21.547Z,21.98
2023-01-23T21:33:53.127Z,21.80
2023-01-23T21:36:24.967Z,21.67
2023-01-23T21:38:56.647Z,22.83
2023-01-23T21:41:28.208Z,20.95
2023-01-23T21:43:59.660Z,21.67
2023-01-23T21:46:31.213Z,23.30
2023-01-23T21:49:03.006Z,22.00
2023-01-23T21:51:34.472Z,22.35
2023-01-23T21:54:05.935Z,21.38
2023-01-23T21:56:37.478Z,23.37
2023-01-23T21:59:10.636Z,22.20
2023-01-23T22:01:42.661Z,22.38
2023-01-23T22:04:16.936Z,24.00
2023-01-23T22:06:55.419Z,22.35
2023-01-23T22:09:27.063Z,23.23
2023-01-23T22:11:58.467Z,23.17
2023-01-23T22:14:30.027Z,22.20
2023-01-23T22:17:01.482Z,22.95
2023-01-23T22:19:32.933Z,22.58
2023-01-23T22:22:04.364Z,22.60
2023-01-23T22:24:35.778Z,21.77
2023-01-23T22:27:07.197Z,23.48
2023-01-23T22:29:38.590Z,22.58
2023-01-23T22:32:10.442Z,21.90
2023-01-23T22:34:41.935Z,21.77
2023-01-23T22:37:13.460Z,21.83
2023-01-23T22:39:44.972Z,22.48
2023-01-23T22:42:16.436Z,22.13
2023-01-23T22:44:47.923Z,21.40
2023-01-23T22:47:19.341Z,21.40
2023-01-23T22:49:50.727Z,21.40
2023-01-23T22:52:22.154Z,21.98
2023-01-23T22:54:53.636Z,22.60
2023-01-23T22:57:25.090Z,20.50
2023-01-23T22:59:56.543Z,20.53
2023-01-23T23:02:27.997Z,21.70
2023-01-23T23:04:59.420Z,22.60
2023-01-23T23:07:30.846Z,20.98
2023-01-23T23:10:07.374Z,22.77
2023-01-23T23:12:38.872Z,21.75
2023-01-23T23:15:10.522Z,21.17
2023-01-23T23:17:42.024Z,22.57
2023-01-23T23:20:13.474Z,20.75
2023-01-23T23:22:45.179Z,22.17
2023-01-23T23:25:16.750Z,20.95
2023-01-23T23:27:48.147Z,20.02
2023-01-23T23:30:19.682Z,22.70
2023-01-23T23:32:51.138Z,21.77
2023-01-23T23:35:22.920Z,21.05
2023-01-23T23:37:54.636Z,21.85
2023-01-23T23:40:26.064Z,20.80
2023-01-23T23:42:57.514Z,21.08
2023-01-23T23:45:29.139Z,21.38
2023-01-23T23:48:00.642Z,22.00
2023-01-23T23:50:32.790Z,20.13
2023-01-23T23:53:04.189Z,19.80
2023-01-23T23:55:35.730Z,20.30
2023-01-23T23:58:07.375Z,20.00
